Crane — ZR3519 — position and weather

sailwx.info

Track history (hours):
 
Tides and Currents Weather Stations Pressure Air Temp Water Temp Dewpoint Dewpoint Depression Visibility Wind Speed Wind Dir Waves Ship Positions

Crane

Last reported at 2015-Sep-02 07:11 UTC. Time now 2015-Sep-04 03:50 UTC.
Position S 29°52' E 031°01'.

MMSI: 601085000.

Date/timePositionNaut miles runAvg speedWind from/ knotsBaromVisibWave heightAir tempDewpointWater temp
2015-Sep-02 07:11S 29°52' E 031°01'2 2.6
2015-Sep-02 06:33S 29°53' E 031°03'4 4.3
2015-Sep-02 05:33S 29°54' E 031°07'6 0.7
2015-Sep-01 21:33S 29°52' E 031°01'0 0.2
2015-Sep-01 20:33S 29°52' E 031°01'0 0.0
2015-Sep-01 08:05S 29°52' E 031°01'0 0.0
2015-Sep-01 07:33S 29°52' E 031°01'0 0.1
2015-Sep-01 06:33S 29°52' E 031°01'5 5.2
2015-Sep-01 05:33S 29°53' E 031°07'5 0.5
2015-Aug-31 19:05S 29°52' E 031°01'1 2.3
2015-Aug-31 18:33S 29°52' E 031°02'4 4.4
2015-Aug-31 17:33S 29°52' E 031°07'4 4.4
2015-Aug-31 16:33S 29°52' E 031°02'1 0.0
2015-Aug-30 07:26S 29°52' E 031°01'2 2.1
2015-Aug-30 06:33S 29°53' E 031°03'3 2.9
2015-Aug-30 05:33S 29°53' E 031°06'5 4.9
2015-Aug-30 04:33S 29°52' E 031°01'0 0.0
2015-Aug-29 19:19S 29°52' E 031°01'2 2.5
2015-Aug-29 18:34S 29°53' E 031°03'4 3.5
2015-Aug-29 17:34S 29°52' E 031°07'5 5.3
2015-Aug-29 16:34S 29°52' E 031°01'0 0.0
2015-Aug-29 15:34S 29°52' E 031°01'0 0.0
2015-Aug-29 07:29S 29°52' E 031°01'1 1.1
2015-Aug-29 06:33S 29°52' E 031°02'5 4.9
2015-Aug-29 05:34S 29°52' E 031°08'5 4.7
2015-Aug-29 04:34S 29°52' E 031°02'1 1.3
2015-Aug-29 03:34S 29°52' E 031°01'0 0.0
2015-Aug-28 07:15S 29°52' E 031°01'1 1.9
2015-Aug-28 06:33S 29°52' E 031°02'3 3.4
2015-Aug-28 05:33S 29°53' E 031°06'3 3.3
2015-Aug-28 04:33S 29°53' E 031°02'1 0.1
2015-Aug-27 08:33S 29°52' E 031°01'4 4.5
2015-Aug-27 07:33S 29°52' E 031°06'2 1.6
2015-Aug-27 06:33S 29°52' E 031°08'4 3.6
2015-Aug-27 05:33S 29°52' E 031°04'3 2.5
2015-Aug-27 04:34S 29°52' E 031°01'0 0.0
2015-Aug-27 03:33S 29°52' E 031°01'0 0.0
2015-Aug-26 09:12S 29°52' E 031°01'1 1.5
2015-Aug-26 08:33S 29°52' E 031°02'4 3.6
2015-Aug-26 07:33S 29°52' E 031°06'1 0.9
2015-Aug-26 06:33S 29°52' E 031°07'0 0.4
2015-Aug-26 05:33S 29°52' E 031°07'5 5.4
2015-Aug-26 04:33S 29°52' E 031°01'0 0.0
2015-Aug-25 11:06S 29°52' E 031°01'0 0.0
2015-Aug-25 10:33S 29°52' E 031°01'0 0.0
2015-Aug-25 09:33S 29°52' E 031°01'2 2.4
2015-Aug-25 08:33S 29°52' E 031°03'3 2.6
2015-Aug-25 07:33S 29°53' E 031°06'0 0.3
2015-Aug-25 06:33S 29°53' E 031°07'1 1.1
2015-Aug-25 05:33S 29°52' E 031°07'5 5.0
2015-Aug-25 04:33S 29°52' E 031°01'0 0.0
2015-Aug-23 08:15S 29°52' E 031°01'0 0.2
2015-Aug-23 07:33S 29°52' E 031°01'  
Track history (hours):
 
Tides and Currents Weather Stations Pressure Air Temp Water Temp Dewpoint Dewpoint Depression Visibility Wind Speed Wind Dir Waves Ship Positions

Crane

Last reported at 2015-Sep-02 07:11 UTC. Time now 2015-Sep-04 03:50 UTC.
Position S 29°52' E 031°01'.

MMSI: 601085000.

Date/timePositionNaut miles runAvg speedWind from/ knotsBaromVisibWave heightAir tempDewpointWater temp
2015-Sep-02 07:11S 29°52' E 031°01'2 2.6
2015-Sep-02 06:33S 29°53' E 031°03'4 4.3
2015-Sep-02 05:33S 29°54' E 031°07'6 0.7
2015-Sep-01 21:33S 29°52' E 031°01'0 0.2
2015-Sep-01 20:33S 29°52' E 031°01'0 0.0
2015-Sep-01 08:05S 29°52' E 031°01'0 0.0
2015-Sep-01 07:33S 29°52' E 031°01'0 0.1
2015-Sep-01 06:33S 29°52' E 031°01'5 5.2
2015-Sep-01 05:33S 29°53' E 031°07'5 0.5
2015-Aug-31 19:05S 29°52' E 031°01'1 2.3
2015-Aug-31 18:33S 29°52' E 031°02'4 4.4
2015-Aug-31 17:33S 29°52' E 031°07'4 4.4
2015-Aug-31 16:33S 29°52' E 031°02'1 0.0
2015-Aug-30 07:26S 29°52' E 031°01'2 2.1
2015-Aug-30 06:33S 29°53' E 031°03'3 2.9
2015-Aug-30 05:33S 29°53' E 031°06'5 4.9
2015-Aug-30 04:33S 29°52' E 031°01'0 0.0
2015-Aug-29 19:19S 29°52' E 031°01'2 2.5
2015-Aug-29 18:34S 29°53' E 031°03'4 3.5
2015-Aug-29 17:34S 29°52' E 031°07'5 5.3
2015-Aug-29 16:34S 29°52' E 031°01'0 0.0
2015-Aug-29 15:34S 29°52' E 031°01'0 0.0
2015-Aug-29 07:29S 29°52' E 031°01'1 1.1
2015-Aug-29 06:33S 29°52' E 031°02'5 4.9
2015-Aug-29 05:34S 29°52' E 031°08'5 4.7
2015-Aug-29 04:34S 29°52' E 031°02'1 1.3
2015-Aug-29 03:34S 29°52' E 031°01'0 0.0
2015-Aug-28 07:15S 29°52' E 031°01'1 1.9
2015-Aug-28 06:33S 29°52' E 031°02'3 3.4
2015-Aug-28 05:33S 29°53' E 031°06'3 3.3
2015-Aug-28 04:33S 29°53' E 031°02'1 0.1
2015-Aug-27 08:33S 29°52' E 031°01'4 4.5
2015-Aug-27 07:33S 29°52' E 031°06'2 1.6
2015-Aug-27 06:33S 29°52' E 031°08'4 3.6
2015-Aug-27 05:33S 29°52' E 031°04'3 2.5
2015-Aug-27 04:34S 29°52' E 031°01'0 0.0
2015-Aug-27 03:33S 29°52' E 031°01'0 0.0
2015-Aug-26 09:12S 29°52' E 031°01'1 1.5
2015-Aug-26 08:33S 29°52' E 031°02'4 3.6
2015-Aug-26 07:33S 29°52' E 031°06'1 0.9
2015-Aug-26 06:33S 29°52' E 031°07'0 0.4
2015-Aug-26 05:33S 29°52' E 031°07'5 5.4
2015-Aug-26 04:33S 29°52' E 031°01'0 0.0
2015-Aug-25 11:06S 29°52' E 031°01'0 0.0
2015-Aug-25 10:33S 29°52' E 031°01'0 0.0
2015-Aug-25 09:33S 29°52' E 031°01'2 2.4
2015-Aug-25 08:33S 29°52' E 031°03'3 2.6
2015-Aug-25 07:33S 29°53' E 031°06'0 0.3
2015-Aug-25 06:33S 29°53' E 031°07'1 1.1
2015-Aug-25 05:33S 29°52' E 031°07'5 5.0
2015-Aug-25 04:33S 29°52' E 031°01'0 0.0
2015-Aug-23 08:15S 29°52' E 031°01'0 0.2
2015-Aug-23 07:33S 29°52' E 031°01'  

Dump ship's entire track history